sensor_id;sensor_type;location;lat;lon;timestamp;P1;durP1;ratioP1;P2;durP2;ratioP2
70122;SDS011;57489;37.404;24.920;2023-11-22T00:04:53;4.10;;;1.90;;
70122;SDS011;57489;37.404;24.920;2023-11-22T00:09:57;3.57;;;1.63;;
70122;SDS011;57489;37.404;24.920;2023-11-22T00:15:02;3.78;;;1.38;;
70122;SDS011;57489;37.404;24.920;2023-11-22T00:20:06;3.00;;;1.53;;
70122;SDS011;57489;37.404;24.920;2023-11-22T00:25:11;3.53;;;1.43;;
70122;SDS011;57489;37.404;24.920;2023-11-22T00:30:14;3.58;;;1.42;;
70122;SDS011;57489;37.404;24.920;2023-11-22T00:35:16;5.57;;;1.80;;
70122;SDS011;57489;37.404;24.920;2023-11-22T00:40:20;3.53;;;1.50;;
70122;SDS011;57489;37.404;24.920;2023-11-22T00:45:22;3.30;;;1.75;;
70122;SDS011;57489;37.404;24.920;2023-11-22T00:50:24;3.70;;;1.83;;
70122;SDS011;57489;37.404;24.920;2023-11-22T00:55:28;4.20;;;1.40;;
70122;SDS011;57489;37.404;24.920;2023-11-22T01:00:31;5.07;;;2.00;;
70122;SDS011;57489;37.404;24.920;2023-11-22T01:05:33;4.73;;;2.20;;
70122;SDS011;57489;37.404;24.920;2023-11-22T01:10:37;4.30;;;1.73;;
70122;SDS011;57489;37.404;24.920;2023-11-22T01:15:40;5.00;;;1.60;;
70122;SDS011;57489;37.404;24.920;2023-11-22T01:20:42;3.70;;;1.60;;
70122;SDS011;57489;37.404;24.920;2023-11-22T01:25:46;3.13;;;1.37;;
70122;SDS011;57489;37.404;24.920;2023-11-22T01:30:50;5.35;;;1.92;;
70122;SDS011;57489;37.404;24.920;2023-11-22T01:35:52;2.97;;;1.57;;
70122;SDS011;57489;37.404;24.920;2023-11-22T01:40:56;4.80;;;1.60;;
70122;SDS011;57489;37.404;24.920;2023-11-22T01:45:58;7.07;;;1.80;;
70122;SDS011;57489;37.404;24.920;2023-11-22T01:51:01;4.47;;;2.07;;
70122;SDS011;57489;37.404;24.920;2023-11-22T01:56:05;3.50;;;1.43;;
70122;SDS011;57489;37.404;24.920;2023-11-22T02:01:09;2.80;;;1.38;;
70122;SDS011;57489;37.404;24.920;2023-11-22T02:06:15;4.53;;;2.00;;
70122;SDS011;57489;37.404;24.920;2023-11-22T02:11:19;3.37;;;1.70;;
70122;SDS011;57489;37.404;24.920;2023-11-22T02:16:22;4.70;;;1.67;;
70122;SDS011;57489;37.404;24.920;2023-11-22T02:21:24;4.47;;;1.70;;
70122;SDS011;57489;37.404;24.920;2023-11-22T02:26:28;2.30;;;1.20;;
70122;SDS011;57489;37.404;24.920;2023-11-22T02:31:31;4.03;;;2.05;;
70122;SDS011;57489;37.404;24.920;2023-11-22T02:36:34;3.57;;;1.80;;
70122;SDS011;57489;37.404;24.920;2023-11-22T02:41:38;4.00;;;1.50;;
70122;SDS011;57489;37.404;24.920;2023-11-22T02:46:41;2.95;;;1.55;;
70122;SDS011;57489;37.404;24.920;2023-11-22T02:51:43;4.00;;;1.43;;
70122;SDS011;57489;37.404;24.920;2023-11-22T02:56:48;5.23;;;1.70;;
70122;SDS011;57489;37.404;24.920;2023-11-22T03:01:50;3.88;;;1.80;;
70122;SDS011;57489;37.404;24.920;2023-11-22T03:06:53;3.37;;;1.83;;
70122;SDS011;57489;37.404;24.920;2023-11-22T03:11:57;3.33;;;1.53;;
70122;SDS011;57489;37.404;24.920;2023-11-22T03:16:59;2.75;;;1.67;;
70122;SDS011;57489;37.404;24.920;2023-11-22T03:22:01;2.90;;;1.73;;
70122;SDS011;57489;37.404;24.920;2023-11-22T03:27:05;3.70;;;1.57;;
70122;SDS011;57489;37.404;24.920;2023-11-22T03:32:08;3.15;;;1.60;;
70122;SDS011;57489;37.404;24.920;2023-11-22T03:37:11;3.83;;;1.50;;
70122;SDS011;57489;37.404;24.920;2023-11-22T03:42:15;4.53;;;1.80;;
70122;SDS011;57489;37.404;24.920;2023-11-22T03:47:18;3.03;;;1.80;;
70122;SDS011;57489;37.404;24.920;2023-11-22T03:52:20;3.60;;;1.53;;
70122;SDS011;57489;37.404;24.920;2023-11-22T03:57:24;2.83;;;1.53;;
70122;SDS011;57489;37.404;24.920;2023-11-22T04:02:26;4.28;;;1.80;;
70122;SDS011;57489;37.404;24.920;2023-11-22T04:07:29;2.83;;;1.37;;
70122;SDS011;57489;37.404;24.920;2023-11-22T04:12:34;4.57;;;1.83;;
70122;SDS011;57489;37.404;24.920;2023-11-22T04:17:37;4.50;;;1.67;;
70122;SDS011;57489;37.404;24.920;2023-11-22T04:22:40;4.17;;;1.90;;
70122;SDS011;57489;37.404;24.920;2023-11-22T04:27:43;3.60;;;1.63;;
70122;SDS011;57489;37.404;24.920;2023-11-22T04:32:46;3.35;;;1.40;;
70122;SDS011;57489;37.404;24.920;2023-11-22T04:37:49;3.10;;;2.00;;
70122;SDS011;57489;37.404;24.920;2023-11-22T04:42:52;5.13;;;1.73;;
70122;SDS011;57489;37.404;24.920;2023-11-22T04:47:55;4.35;;;2.15;;
70122;SDS011;57489;37.404;24.920;2023-11-22T04:52:57;3.20;;;1.83;;
70122;SDS011;57489;37.404;24.920;2023-11-22T04:58:03;3.60;;;1.67;;
70122;SDS011;57489;37.404;24.920;2023-11-22T05:03:05;3.47;;;1.90;;
70122;SDS011;57489;37.404;24.920;2023-11-22T05:08:08;3.38;;;1.85;;
70122;SDS011;57489;37.404;24.920;2023-11-22T05:13:12;3.97;;;1.93;;
70122;SDS011;57489;37.404;24.920;2023-11-22T05:18:14;4.90;;;1.80;;
70122;SDS011;57489;37.404;24.920;2023-11-22T05:23:18;4.70;;;1.63;;
70122;SDS011;57489;37.404;24.920;2023-11-22T05:28:21;4.80;;;1.23;;
70122;SDS011;57489;37.404;24.920;2023-11-22T05:33:24;7.70;;;1.88;;
70122;SDS011;57489;37.404;24.920;2023-11-22T05:38:26;6.23;;;2.43;;
70122;SDS011;57489;37.404;24.920;2023-11-22T05:43:30;7.33;;;2.23;;
70122;SDS011;57489;37.404;24.920;2023-11-22T05:48:36;14.30;;;3.78;;
70122;SDS011;57489;37.404;24.920;2023-11-22T05:53:38;14.93;;;4.37;;
70122;SDS011;57489;37.404;24.920;2023-11-22T05:58:42;16.90;;;4.07;;
70122;SDS011;57489;37.404;24.920;2023-11-22T06:03:45;21.42;;;3.80;;
70122;SDS011;57489;37.404;24.920;2023-11-22T06:08:47;15.30;;;4.13;;
70122;SDS011;57489;37.404;24.920;2023-11-22T06:13:51;14.80;;;3.57;;
70122;SDS011;57489;37.404;24.920;2023-11-22T06:18:53;11.25;;;2.85;;
70122;SDS011;57489;37.404;24.920;2023-11-22T06:23:55;10.18;;;2.95;;
70122;SDS011;57489;37.404;24.920;2023-11-22T06:28:59;13.40;;;3.00;;
70122;SDS011;57489;37.404;24.920;2023-11-22T06:34:03;8.63;;;2.80;;
70122;SDS011;57489;37.404;24.920;2023-11-22T06:39:05;10.80;;;2.45;;
70122;SDS011;57489;37.404;24.920;2023-11-22T06:44:10;8.33;;;2.97;;
70122;SDS011;57489;37.404;24.920;2023-11-22T06:49:13;11.32;;;3.28;;
70122;SDS011;57489;37.404;24.920;2023-11-22T06:54:15;6.30;;;2.17;;
70122;SDS011;57489;37.404;24.920;2023-11-22T06:59:21;8.27;;;2.73;;
70122;SDS011;57489;37.404;24.920;2023-11-22T07:04:23;6.95;;;2.40;;
70122;SDS011;57489;37.404;24.920;2023-11-22T07:09:25;9.20;;;2.97;;
70122;SDS011;57489;37.404;24.920;2023-11-22T07:14:29;10.03;;;2.50;;
70122;SDS011;57489;37.404;24.920;2023-11-22T07:19:32;11.05;;;2.10;;
70122;SDS011;57489;37.404;24.920;2023-11-22T07:24:38;5.53;;;2.00;;
70122;SDS011;57489;37.404;24.920;2023-11-22T07:29:43;7.60;;;2.77;;
70122;SDS011;57489;37.404;24.920;2023-11-22T07:34:47;5.47;;;1.92;;
70122;SDS011;57489;37.404;24.920;2023-11-22T07:39:49;6.25;;;1.92;;
70122;SDS011;57489;37.404;24.920;2023-11-22T07:44:54;8.47;;;2.40;;
70122;SDS011;57489;37.404;24.920;2023-11-22T07:49:56;9.10;;;2.10;;
70122;SDS011;57489;37.404;24.920;2023-11-22T07:54:58;6.40;;;2.08;;
70122;SDS011;57489;37.404;24.920;2023-11-22T08:00:02;5.88;;;1.98;;
70122;SDS011;57489;37.404;24.920;2023-11-22T08:05:07;5.43;;;1.90;;
70122;SDS011;57489;37.404;24.920;2023-11-22T08:10:10;6.22;;;1.80;;
70122;SDS011;57489;37.404;24.920;2023-11-22T08:15:20;5.22;;;1.95;;
70122;SDS011;57489;37.404;24.920;2023-11-22T08:20:22;4.70;;;1.80;;
70122;SDS011;57489;37.404;24.920;2023-11-22T08:25:25;3.45;;;1.30;;
70122;SDS011;57489;37.404;24.920;2023-11-22T08:30:29;4.57;;;1.67;;
70122;SDS011;57489;37.404;24.920;2023-11-22T08:35:36;6.27;;;2.07;;
70122;SDS011;57489;37.404;24.920;2023-11-22T08:40:38;5.07;;;1.50;;
70122;SDS011;57489;37.404;24.920;2023-11-22T08:45:41;5.70;;;1.95;;
70122;SDS011;57489;37.404;24.920;2023-11-22T08:50:44;4.17;;;1.80;;
70122;SDS011;57489;37.404;24.920;2023-11-22T08:55:48;4.55;;;1.13;;
70122;SDS011;57489;37.404;24.920;2023-11-22T09:00:52;4.03;;;1.45;;
70122;SDS011;57489;37.404;24.920;2023-11-22T09:05:54;5.80;;;1.47;;
70122;SDS011;57489;37.404;24.920;2023-11-22T09:10:58;3.65;;;1.20;;
70122;SDS011;57489;37.404;24.920;2023-11-22T09:16:01;6.93;;;1.75;;
70122;SDS011;57489;37.404;24.920;2023-11-22T09:21:05;3.33;;;1.80;;
70122;SDS011;57489;37.404;24.920;2023-11-22T09:26:08;3.13;;;1.80;;
70122;SDS011;57489;37.404;24.920;2023-11-22T09:31:13;5.93;;;2.50;;
70122;SDS011;57489;37.404;24.920;2023-11-22T09:36:18;4.30;;;1.53;;
70122;SDS011;57489;37.404;24.920;2023-11-22T09:41:20;3.23;;;1.73;;
70122;SDS011;57489;37.404;24.920;2023-11-22T09:46:26;4.15;;;1.50;;
70122;SDS011;57489;37.404;24.920;2023-11-22T09:51:30;5.10;;;2.00;;
70122;SDS011;57489;37.404;24.920;2023-11-22T09:56:39;5.97;;;1.83;;
70122;SDS011;57489;37.404;24.920;2023-11-22T10:01:52;5.80;;;1.95;;
70122;SDS011;57489;37.404;24.920;2023-11-22T10:06:55;3.83;;;1.73;;
70122;SDS011;57489;37.404;24.920;2023-11-22T10:12:01;5.27;;;1.90;;
70122;SDS011;57489;37.404;24.920;2023-11-22T10:17:05;4.13;;;1.60;;
70122;SDS011;57489;37.404;24.920;2023-11-22T10:22:08;3.13;;;1.30;;
70122;SDS011;57489;37.404;24.920;2023-11-22T10:27:16;5.33;;;2.00;;
70122;SDS011;57489;37.404;24.920;2023-11-22T10:32:20;4.07;;;1.83;;
70122;SDS011;57489;37.404;24.920;2023-11-22T10:37:22;6.40;;;1.88;;
70122;SDS011;57489;37.404;24.920;2023-11-22T10:42:26;3.67;;;1.60;;
70122;SDS011;57489;37.404;24.920;2023-11-22T10:47:30;3.53;;;1.83;;
70122;SDS011;57489;37.404;24.920;2023-11-22T10:52:33;3.88;;;1.70;;
70122;SDS011;57489;37.404;24.920;2023-11-22T10:57:39;3.63;;;1.37;;
70122;SDS011;57489;37.404;24.920;2023-11-22T11:02:47;3.92;;;2.03;;
70122;SDS011;57489;37.404;24.920;2023-11-22T11:08:02;4.57;;;1.57;;
70122;SDS011;57489;37.404;24.920;2023-11-22T11:13:11;4.00;;;1.70;;
70122;SDS011;57489;37.404;24.920;2023-11-22T11:18:16;6.75;;;1.90;;
70122;SDS011;57489;37.404;24.920;2023-11-22T11:23:19;4.68;;;1.60;;
70122;SDS011;57489;37.404;24.920;2023-11-22T11:28:22;4.30;;;1.57;;
70122;SDS011;57489;37.404;24.920;2023-11-22T11:33:32;5.03;;;1.73;;
70122;SDS011;57489;37.404;24.920;2023-11-22T11:38:35;4.65;;;1.55;;
70122;SDS011;57489;37.404;24.920;2023-11-22T11:43:40;5.00;;;1.63;;
70122;SDS011;57489;37.404;24.920;2023-11-22T11:48:46;6.93;;;1.88;;
70122;SDS011;57489;37.404;24.920;2023-11-22T11:53:51;4.18;;;1.50;;
70122;SDS011;57489;37.404;24.920;2023-11-22T11:58:53;3.47;;;1.47;;
70122;SDS011;57489;37.404;24.920;2023-11-22T12:04:01;4.85;;;1.77;;
70122;SDS011;57489;37.404;24.920;2023-11-22T12:09:04;4.53;;;1.45;;
70122;SDS011;57489;37.404;24.920;2023-11-22T12:14:06;4.37;;;1.67;;
70122;SDS011;57489;37.404;24.920;2023-11-22T12:19:10;8.45;;;1.83;;
70122;SDS011;57489;37.404;24.920;2023-11-22T12:24:13;6.13;;;1.50;;
70122;SDS011;57489;37.404;24.920;2023-11-22T12:29:15;4.97;;;1.10;;
70122;SDS011;57489;37.404;24.920;2023-11-22T12:34:20;6.65;;;1.80;;
70122;SDS011;57489;37.404;24.920;2023-11-22T12:39:25;5.32;;;1.63;;
70122;SDS011;57489;37.404;24.920;2023-11-22T12:44:27;6.13;;;1.40;;
70122;SDS011;57489;37.404;24.920;2023-11-22T12:49:31;7.90;;;1.70;;
70122;SDS011;57489;37.404;24.920;2023-11-22T12:54:33;3.78;;;1.10;;
70122;SDS011;57489;37.404;24.920;2023-11-22T12:59:35;7.07;;;1.67;;
70122;SDS011;57489;37.404;24.920;2023-11-22T13:04:39;7.78;;;1.65;;
70122;SDS011;57489;37.404;24.920;2023-11-22T13:09:41;10.88;;;1.30;;
70122;SDS011;57489;37.404;24.920;2023-11-22T13:14:44;6.30;;;2.20;;
70122;SDS011;57489;37.404;24.920;2023-11-22T13:19:49;5.63;;;1.63;;
70122;SDS011;57489;37.404;24.920;2023-11-22T13:24:51;5.28;;;1.10;;
70122;SDS011;57489;37.404;24.920;2023-11-22T13:29:53;5.23;;;1.43;;
70122;SDS011;57489;37.404;24.920;2023-11-22T13:34:58;3.53;;;1.27;;
70122;SDS011;57489;37.404;24.920;2023-11-22T13:40:01;9.93;;;1.33;;
70122;SDS011;57489;37.404;24.920;2023-11-22T13:45:03;7.65;;;1.80;;
70122;SDS011;57489;37.404;24.920;2023-11-22T13:50:09;5.53;;;1.20;;
70122;SDS011;57489;37.404;24.920;2023-11-22T13:55:11;4.07;;;1.20;;
70122;SDS011;57489;37.404;24.920;2023-11-22T14:00:14;6.95;;;1.40;;
70122;SDS011;57489;37.404;24.920;2023-11-22T14:05:20;3.60;;;0.90;;
70122;SDS011;57489;37.404;24.920;2023-11-22T14:10:23;3.92;;;1.83;;
70122;SDS011;57489;37.404;24.920;2023-11-22T14:15:25;4.20;;;1.58;;
70122;SDS011;57489;37.404;24.920;2023-11-22T14:20:29;6.60;;;1.50;;
70122;SDS011;57489;37.404;24.920;2023-11-22T14:25:34;6.55;;;1.30;;
70122;SDS011;57489;37.404;24.920;2023-11-22T14:30:37;7.20;;;1.55;;
70122;SDS011;57489;37.404;24.920;2023-11-22T14:35:40;4.37;;;1.50;;
70122;SDS011;57489;37.404;24.920;2023-11-22T14:40:44;9.57;;;1.60;;
70122;SDS011;57489;37.404;24.920;2023-11-22T14:45:46;5.45;;;1.52;;
70122;SDS011;57489;37.404;24.920;2023-11-22T14:50:50;4.88;;;1.80;;
70122;SDS011;57489;37.404;24.920;2023-11-22T14:55:52;3.53;;;1.33;;
70122;SDS011;57489;37.404;24.920;2023-11-22T15:00:54;5.60;;;1.60;;
70122;SDS011;57489;37.404;24.920;2023-11-22T15:05:59;7.07;;;2.17;;
70122;SDS011;57489;37.404;24.920;2023-11-22T15:11:01;5.33;;;1.53;;
70122;SDS011;57489;37.404;24.920;2023-11-22T15:16:04;4.38;;;1.52;;
70122;SDS011;57489;37.404;24.920;2023-11-22T15:21:08;4.95;;;1.88;;
70122;SDS011;57489;37.404;24.920;2023-11-22T15:26:11;8.43;;;1.47;;
70122;SDS011;57489;37.404;24.920;2023-11-22T15:31:14;8.18;;;2.17;;
70122;SDS011;57489;37.404;24.920;2023-11-22T15:36:18;4.83;;;1.60;;
70122;SDS011;57489;37.404;24.920;2023-11-22T15:41:20;8.43;;;2.00;;
70122;SDS011;57489;37.404;24.920;2023-11-22T15:46:23;6.97;;;2.38;;
70122;SDS011;57489;37.404;24.920;2023-11-22T15:51:27;8.70;;;2.77;;
70122;SDS011;57489;37.404;24.920;2023-11-22T15:56:29;8.80;;;2.33;;
70122;SDS011;57489;37.404;24.920;2023-11-22T16:01:32;5.55;;;1.90;;
70122;SDS011;57489;37.404;24.920;2023-11-22T16:06:35;5.57;;;2.00;;
70122;SDS011;57489;37.404;24.920;2023-11-22T16:11:39;5.50;;;1.70;;
70122;SDS011;57489;37.404;24.920;2023-11-22T16:16:41;6.03;;;1.85;;
70122;SDS011;57489;37.404;24.920;2023-11-22T16:21:45;6.10;;;1.55;;
70122;SDS011;57489;37.404;24.920;2023-11-22T16:26:48;3.27;;;1.43;;
70122;SDS011;57489;37.404;24.920;2023-11-22T16:31:51;4.65;;;2.10;;
70122;SDS011;57489;37.404;24.920;2023-11-22T16:36:54;9.60;;;2.20;;
70122;SDS011;57489;37.404;24.920;2023-11-22T16:41:57;7.87;;;2.30;;
70122;SDS011;57489;37.404;24.920;2023-11-22T16:46:59;11.73;;;2.45;;
70122;SDS011;57489;37.404;24.920;2023-11-22T16:52:05;7.82;;;1.83;;
70122;SDS011;57489;37.404;24.920;2023-11-22T16:57:09;8.73;;;1.80;;
70122;SDS011;57489;37.404;24.920;2023-11-22T17:02:13;11.77;;;2.97;;
70122;SDS011;57489;37.404;24.920;2023-11-22T17:07:19;12.40;;;1.85;;
70122;SDS011;57489;37.404;24.920;2023-11-22T17:12:22;10.07;;;2.10;;
70122;SDS011;57489;37.404;24.920;2023-11-22T17:17:24;12.98;;;2.80;;
70122;SDS011;57489;37.404;24.920;2023-11-22T17:22:30;9.93;;;1.88;;
70122;SDS011;57489;37.404;24.920;2023-11-22T17:27:32;6.30;;;1.70;;
70122;SDS011;57489;37.404;24.920;2023-11-22T17:32:34;7.93;;;2.03;;
70122;SDS011;57489;37.404;24.920;2023-11-22T17:37:38;9.00;;;1.65;;
70122;SDS011;57489;37.404;24.920;2023-11-22T17:42:41;10.93;;;1.57;;
70122;SDS011;57489;37.404;24.920;2023-11-22T17:47:43;7.25;;;1.40;;
70122;SDS011;57489;37.404;24.920;2023-11-22T17:52:47;4.85;;;1.17;;
70122;SDS011;57489;37.404;24.920;2023-11-22T17:57:49;3.30;;;1.40;;
70122;SDS011;57489;37.404;24.920;2023-11-22T18:02:51;5.88;;;1.65;;
70122;SDS011;57489;37.404;24.920;2023-11-22T18:07:55;3.13;;;0.90;;
70122;SDS011;57489;37.404;24.920;2023-11-22T18:12:57;5.80;;;1.33;;
70122;SDS011;57489;37.404;24.920;2023-11-22T18:18:00;6.03;;;1.58;;
70122;SDS011;57489;37.404;24.920;2023-11-22T18:23:03;3.60;;;1.73;;
70122;SDS011;57489;37.404;24.920;2023-11-22T18:28:06;6.67;;;1.83;;
70122;SDS011;57489;37.404;24.920;2023-11-22T18:33:11;9.65;;;2.60;;
70122;SDS011;57489;37.404;24.920;2023-11-22T18:38:15;9.90;;;2.88;;
70122;SDS011;57489;37.404;24.920;2023-11-22T18:43:21;8.57;;;2.73;;
70122;SDS011;57489;37.404;24.920;2023-11-22T18:48:24;8.20;;;3.00;;
70122;SDS011;57489;37.404;24.920;2023-11-22T18:53:27;7.73;;;2.57;;
70122;SDS011;57489;37.404;24.920;2023-11-22T18:58:30;5.60;;;2.03;;
70122;SDS011;57489;37.404;24.920;2023-11-22T19:03:32;4.70;;;1.92;;
70122;SDS011;57489;37.404;24.920;2023-11-22T19:08:36;8.90;;;2.33;;
70122;SDS011;57489;37.404;24.920;2023-11-22T19:13:41;6.40;;;2.33;;
70122;SDS011;57489;37.404;24.920;2023-11-22T19:18:43;5.53;;;2.38;;
70122;SDS011;57489;37.404;24.920;2023-11-22T19:23:47;9.77;;;2.58;;
70122;SDS011;57489;37.404;24.920;2023-11-22T19:28:51;4.53;;;2.10;;
70122;SDS011;57489;37.404;24.920;2023-11-22T19:33:53;5.22;;;1.95;;
70122;SDS011;57489;37.404;24.920;2023-11-22T19:38:58;5.67;;;2.33;;
70122;SDS011;57489;37.404;24.920;2023-11-22T19:44:01;5.50;;;1.97;;
70122;SDS011;57489;37.404;24.920;2023-11-22T19:49:03;7.93;;;2.95;;
70122;SDS011;57489;37.404;24.920;2023-11-22T19:54:08;5.73;;;2.70;;
70122;SDS011;57489;37.404;24.920;2023-11-22T19:59:11;8.73;;;2.40;;
70122;SDS011;57489;37.404;24.920;2023-11-22T20:04:13;7.25;;;2.33;;
70122;SDS011;57489;37.404;24.920;2023-11-22T20:09:18;8.90;;;2.78;;
70122;SDS011;57489;37.404;24.920;2023-11-22T20:14:20;6.40;;;2.93;;
70122;SDS011;57489;37.404;24.920;2023-11-22T20:19:23;10.25;;;2.47;;
70122;SDS011;57489;37.404;24.920;2023-11-22T20:24:26;9.30;;;2.17;;
70122;SDS011;57489;37.404;24.920;2023-11-22T20:29:29;9.57;;;1.90;;
70122;SDS011;57489;37.404;24.920;2023-11-22T20:34:32;7.82;;;2.45;;
70122;SDS011;57489;37.404;24.920;2023-11-22T20:39:36;7.93;;;2.50;;
70122;SDS011;57489;37.404;24.920;2023-11-22T20:44:38;4.10;;;2.00;;
70122;SDS011;57489;37.404;24.920;2023-11-22T20:49:40;6.13;;;1.80;;
70122;SDS011;57489;37.404;24.920;2023-11-22T20:54:44;4.10;;;1.87;;
70122;SDS011;57489;37.404;24.920;2023-11-22T20:59:47;8.07;;;2.43;;
70122;SDS011;57489;37.404;24.920;2023-11-22T21:04:52;7.38;;;2.25;;
70122;SDS011;57489;37.404;24.920;2023-11-22T21:09:56;5.68;;;1.90;;
70122;SDS011;57489;37.404;24.920;2023-11-22T21:15:00;6.10;;;1.53;;
70122;SDS011;57489;37.404;24.920;2023-11-22T21:20:03;4.20;;;1.65;;
70122;SDS011;57489;37.404;24.920;2023-11-22T21:25:09;4.53;;;2.20;;
70122;SDS011;57489;37.404;24.920;2023-11-22T21:30:12;4.17;;;1.70;;
70122;SDS011;57489;37.404;24.920;2023-11-22T21:35:14;6.78;;;1.67;;
70122;SDS011;57489;37.404;24.920;2023-11-22T21:40:18;5.23;;;2.10;;
70122;SDS011;57489;37.404;24.920;2023-11-22T21:45:21;6.33;;;1.90;;
70122;SDS011;57489;37.404;24.920;2023-11-22T21:50:23;6.45;;;2.80;;
70122;SDS011;57489;37.404;24.920;2023-11-22T21:55:28;5.65;;;2.40;;
70122;SDS011;57489;37.404;24.920;2023-11-22T22:00:32;5.47;;;2.17;;
70122;SDS011;57489;37.404;24.920;2023-11-22T22:05:34;7.55;;;2.00;;
70122;SDS011;57489;37.404;24.920;2023-11-22T22:10:38;5.03;;;2.10;;
70122;SDS011;57489;37.404;24.920;2023-11-22T22:15:41;5.90;;;1.57;;
70122;SDS011;57489;37.404;24.920;2023-11-22T22:20:44;7.30;;;2.88;;
70122;SDS011;57489;37.404;24.920;2023-11-22T22:25:48;6.70;;;2.37;;
70122;SDS011;57489;37.404;24.920;2023-11-22T22:30:50;5.23;;;2.13;;
70122;SDS011;57489;37.404;24.920;2023-11-22T22:35:52;4.30;;;2.00;;
70122;SDS011;57489;37.404;24.920;2023-11-22T22:40:56;4.90;;;2.00;;
70122;SDS011;57489;37.404;24.920;2023-11-22T22:45:59;4.60;;;2.03;;
70122;SDS011;57489;37.404;24.920;2023-11-22T22:51:03;5.05;;;2.47;;
70122;SDS011;57489;37.404;24.920;2023-11-22T22:56:07;7.53;;;2.10;;
70122;SDS011;57489;37.404;24.920;2023-11-22T23:01:10;4.67;;;1.77;;
70122;SDS011;57489;37.404;24.920;2023-11-22T23:06:21;6.00;;;1.90;;
70122;SDS011;57489;37.404;24.920;2023-11-22T23:11:25;5.07;;;1.77;;
70122;SDS011;57489;37.404;24.920;2023-11-22T23:16:28;4.40;;;1.40;;
70122;SDS011;57489;37.404;24.920;2023-11-22T23:21:30;5.75;;;1.90;;
70122;SDS011;57489;37.404;24.920;2023-11-22T23:26:33;6.77;;;2.13;;
70122;SDS011;57489;37.404;24.920;2023-11-22T23:31:36;6.37;;;1.70;;
70122;SDS011;57489;37.404;24.920;2023-11-22T23:36:41;4.03;;;1.92;;
70122;SDS011;57489;37.404;24.920;2023-11-22T23:41:45;10.17;;;1.40;;
70122;SDS011;57489;37.404;24.920;2023-11-22T23:46:48;5.13;;;1.63;;
70122;SDS011;57489;37.404;24.920;2023-11-22T23:51:51;9.05;;;2.38;;
70122;SDS011;57489;37.404;24.920;2023-11-22T23:56:54;3.97;;;2.07;;
